createdAt,value
2019-03-31T00:00:07.163Z,996.84
2019-03-31T00:01:08.484Z,996.82
2019-03-31T00:02:08.142Z,996.83
2019-03-31T00:03:07.154Z,996.88
2019-03-31T00:04:07.125Z,996.85
2019-03-31T00:05:07.134Z,996.76
2019-03-31T00:06:07.122Z,996.86
2019-03-31T00:07:07.141Z,996.81
2019-03-31T00:08:07.114Z,996.86
2019-03-31T00:09:07.104Z,996.80
2019-03-31T00:10:07.095Z,996.84
2019-03-31T00:11:07.089Z,996.78
2019-03-31T00:12:07.085Z,996.82
2019-03-31T00:13:07.086Z,996.82
2019-03-31T00:14:07.073Z,996.74
2019-03-31T00:15:07.066Z,996.72
2019-03-31T00:16:07.050Z,996.74
2019-03-31T00:17:07.038Z,996.80
2019-03-31T00:18:07.044Z,996.82
2019-03-31T00:19:07.027Z,996.79
2019-03-31T00:20:07.028Z,996.76
2019-03-31T00:21:07.024Z,996.84
2019-03-31T00:22:07.018Z,996.74
2019-03-31T00:23:07.021Z,996.78
2019-03-31T00:24:07.013Z,996.78
2019-03-31T00:25:06.994Z,996.80
2019-03-31T00:26:06.996Z,996.76
2019-03-31T00:27:06.985Z,996.85
2019-03-31T00:28:06.988Z,996.82
2019-03-31T00:29:06.963Z,996.85
2019-03-31T00:30:06.972Z,996.83
2019-03-31T00:31:06.970Z,996.83
2019-03-31T00:32:06.958Z,996.84
2019-03-31T00:33:06.959Z,996.89
2019-03-31T00:34:06.938Z,996.86
2019-03-31T00:35:06.938Z,996.85
2019-03-31T00:36:06.942Z,996.79
2019-03-31T00:37:07.863Z,996.77
2019-03-31T00:38:07.915Z,996.78
2019-03-31T00:39:06.904Z,996.75
2019-03-31T00:40:06.915Z,996.80
2019-03-31T00:41:06.910Z,996.79
2019-03-31T00:42:06.907Z,996.74
2019-03-31T00:43:06.915Z,996.79
2019-03-31T00:44:06.902Z,996.84
2019-03-31T00:45:06.889Z,996.76
2019-03-31T00:46:06.885Z,996.88
2019-03-31T00:47:06.871Z,996.79
2019-03-31T00:48:07.154Z,996.74
2019-03-31T00:49:06.873Z,996.90
2019-03-31T00:50:06.851Z,996.89
2019-03-31T00:51:06.848Z,996.92
2019-03-31T00:52:06.841Z,996.87
2019-03-31T00:53:06.851Z,996.92
2019-03-31T00:54:06.856Z,996.85
2019-03-31T00:55:06.827Z,996.92
2019-03-31T00:56:07.828Z,996.93
2019-03-31T00:57:06.819Z,996.90
2019-03-31T00:58:06.818Z,996.94
2019-03-31T00:59:06.834Z,996.98
2019-03-31T01:00:06.802Z,996.92
2019-03-31T01:01:06.791Z,996.94
2019-03-31T01:02:06.789Z,996.95
2019-03-31T01:03:06.785Z,996.94
2019-03-31T01:04:06.781Z,996.96
2019-03-31T01:05:06.775Z,996.83
2019-03-31T01:06:06.750Z,996.94
2019-03-31T01:07:06.749Z,996.88
2019-03-31T01:08:06.741Z,996.86
2019-03-31T01:09:06.748Z,996.91
2019-03-31T01:10:06.747Z,996.89
2019-03-31T01:11:06.724Z,996.90
2019-03-31T01:12:06.741Z,996.87
2019-03-31T01:13:06.732Z,996.95
2019-03-31T01:14:06.738Z,996.89
2019-03-31T01:15:06.721Z,996.93
2019-03-31T01:16:06.723Z,996.87
2019-03-31T01:17:06.703Z,996.92
2019-03-31T01:18:06.700Z,996.90
2019-03-31T01:19:06.705Z,996.88
2019-03-31T01:20:07.678Z,996.96
2019-03-31T01:21:06.683Z,996.94
2019-03-31T01:22:06.663Z,996.94
2019-03-31T01:23:06.654Z,996.96
2019-03-31T01:24:06.697Z,996.90
2019-03-31T01:25:06.665Z,996.97
2019-03-31T01:26:06.689Z,996.94
2019-03-31T01:27:06.658Z,996.90
2019-03-31T01:28:06.641Z,996.89
2019-03-31T01:29:07.672Z,996.91
2019-03-31T01:30:06.639Z,996.94
2019-03-31T01:31:06.631Z,996.92
2019-03-31T01:32:06.630Z,996.96
2019-03-31T01:33:06.619Z,996.98
2019-03-31T01:34:06.635Z,997.02
2019-03-31T01:35:06.599Z,996.97
2019-03-31T01:36:06.601Z,996.89
2019-03-31T01:37:06.590Z,996.94
2019-03-31T01:38:06.582Z,996.98
2019-03-31T01:39:06.578Z,996.94
2019-03-31T01:40:06.595Z,996.83
2019-03-31T01:41:06.567Z,996.96
2019-03-31T01:42:06.565Z,996.94
2019-03-31T01:43:06.548Z,996.98
2019-03-31T01:44:06.548Z,996.97
2019-03-31T01:45:06.548Z,996.94
2019-03-31T01:46:06.530Z,996.99
2019-03-31T01:47:06.525Z,996.97
2019-03-31T01:48:06.519Z,997.01
2019-03-31T01:49:06.498Z,996.90
2019-03-31T01:50:06.505Z,996.99
2019-03-31T01:51:06.484Z,996.97
2019-03-31T01:52:06.527Z,996.93
2019-03-31T01:53:06.477Z,996.99
2019-03-31T01:54:06.464Z,996.99
2019-03-31T01:55:06.466Z,996.95
2019-03-31T01:56:06.451Z,996.96
2019-03-31T01:57:06.447Z,996.93
2019-03-31T01:58:06.440Z,996.97
2019-03-31T01:59:06.438Z,996.96
2019-03-31T02:00:06.441Z,996.95
2019-03-31T02:01:06.418Z,996.94
2019-03-31T02:02:06.411Z,996.93
2019-03-31T02:03:06.406Z,996.97
2019-03-31T02:04:06.400Z,996.93
2019-03-31T02:05:06.399Z,996.92
2019-03-31T02:06:06.388Z,997.00
2019-03-31T02:07:06.379Z,996.92
2019-03-31T02:08:06.370Z,997.01
2019-03-31T02:09:06.360Z,996.93
2019-03-31T02:10:06.366Z,996.92
2019-03-31T02:11:06.373Z,996.97
2019-03-31T02:12:06.363Z,996.95
2019-03-31T02:13:06.363Z,996.97
2019-03-31T02:14:06.351Z,996.88
2019-03-31T02:15:06.350Z,996.96
2019-03-31T02:16:06.338Z,996.98
2019-03-31T02:17:06.332Z,996.98
2019-03-31T02:18:06.314Z,996.98
2019-03-31T02:19:06.316Z,996.99
2019-03-31T02:20:06.318Z,997.01
2019-03-31T02:21:06.298Z,996.94
2019-03-31T02:22:06.286Z,996.92
2019-03-31T02:23:06.286Z,996.98
2019-03-31T02:24:06.272Z,996.89
2019-03-31T02:25:06.278Z,996.89
2019-03-31T02:26:06.255Z,996.91
2019-03-31T02:27:06.253Z,996.96
2019-03-31T02:28:06.245Z,996.98
2019-03-31T02:29:06.237Z,997.00
2019-03-31T02:30:06.246Z,996.93
2019-03-31T02:31:06.227Z,996.88
2019-03-31T02:32:22.696Z,996.93
2019-03-31T02:33:08.208Z,996.95
2019-03-31T02:34:06.202Z,996.90
2019-03-31T02:35:06.205Z,996.94
2019-03-31T02:36:06.184Z,996.95
2019-03-31T02:37:06.178Z,996.86
2019-03-31T02:38:06.189Z,996.77
2019-03-31T02:39:06.208Z,996.81
2019-03-31T02:40:06.202Z,996.80
2019-03-31T02:41:06.191Z,996.87
2019-03-31T02:42:06.179Z,996.89
2019-03-31T02:43:06.170Z,996.89
2019-03-31T02:44:06.190Z,996.84
2019-03-31T02:45:07.197Z,996.84
2019-03-31T02:46:06.185Z,996.89
2019-03-31T02:47:06.180Z,996.90
2019-03-31T02:48:06.171Z,996.88
2019-03-31T02:49:06.150Z,996.95
2019-03-31T02:50:06.167Z,996.89
2019-03-31T02:51:06.139Z,996.92
2019-03-31T02:52:06.134Z,996.83
2019-03-31T02:53:06.123Z,996.94
2019-03-31T02:54:06.115Z,996.93
2019-03-31T02:55:07.120Z,996.97
2019-03-31T02:56:06.102Z,997.01
2019-03-31T02:57:06.096Z,996.99
2019-03-31T02:58:06.090Z,997.02
2019-03-31T02:59:06.089Z,997.01
2019-03-31T03:00:06.086Z,996.94
2019-03-31T03:01:06.146Z,996.90
2019-03-31T03:02:06.065Z,996.97
2019-03-31T03:03:06.050Z,996.98
2019-03-31T03:04:08.043Z,997.02
2019-03-31T03:05:18.684Z,996.97
2019-03-31T03:06:08.053Z,997.02
2019-03-31T03:07:06.026Z,997.00
2019-03-31T03:08:06.111Z,997.00
2019-03-31T03:09:06.043Z,996.90
2019-03-31T03:10:06.028Z,996.89
2019-03-31T03:11:06.028Z,996.94
2019-03-31T03:12:06.013Z,996.96
2019-03-31T03:13:06.044Z,996.93
2019-03-31T03:14:06.001Z,996.94
2019-03-31T03:15:05.988Z,996.88
2019-03-31T03:16:06.001Z,996.88
2019-03-31T03:17:05.997Z,996.89
2019-03-31T03:18:05.969Z,996.88
2019-03-31T03:19:05.976Z,996.97
2019-03-31T03:20:05.961Z,996.94
2019-03-31T03:21:05.955Z,996.85
2019-03-31T03:22:05.941Z,996.90
2019-03-31T03:23:05.938Z,996.87
2019-03-31T03:24:05.943Z,996.86
2019-03-31T03:25:05.918Z,996.85
2019-03-31T03:26:05.947Z,996.83
2019-03-31T03:27:05.924Z,996.82
2019-03-31T03:28:05.917Z,996.92
2019-03-31T03:29:05.913Z,996.90
2019-03-31T03:30:05.917Z,996.84
2019-03-31T03:31:14.015Z,996.82
2019-03-31T03:32:06.893Z,996.84
2019-03-31T03:33:16.367Z,996.83
2019-03-31T03:34:07.887Z,996.92
2019-03-31T03:35:06.863Z,996.90
2019-03-31T03:36:05.885Z,996.89
2019-03-31T03:37:05.859Z,996.77
2019-03-31T03:38:05.846Z,996.81
2019-03-31T03:39:05.846Z,996.84
2019-03-31T03:40:05.857Z,996.86
2019-03-31T03:41:05.833Z,996.82
2019-03-31T03:42:05.851Z,996.82
2019-03-31T03:43:05.809Z,996.76
2019-03-31T03:44:05.798Z,996.86
2019-03-31T03:45:05.795Z,996.88
2019-03-31T03:46:05.795Z,996.90
2019-03-31T03:47:05.778Z,996.84
2019-03-31T03:48:05.769Z,996.83
2019-03-31T03:49:05.799Z,996.92
2019-03-31T03:50:05.762Z,996.92
2019-03-31T03:51:05.770Z,996.97
2019-03-31T03:52:05.750Z,996.95
2019-03-31T03:53:05.747Z,996.89
2019-03-31T03:54:05.736Z,996.92
2019-03-31T03:55:05.722Z,996.96
2019-03-31T03:56:05.730Z,996.97
2019-03-31T03:57:05.712Z,996.98
2019-03-31T03:58:05.720Z,996.92
2019-03-31T03:59:05.738Z,996.98
2019-03-31T04:00:05.703Z,996.94
2019-03-31T04:01:05.708Z,996.95
2019-03-31T04:02:05.692Z,996.95
2019-03-31T04:03:05.685Z,996.88
2019-03-31T04:04:05.682Z,996.89
2019-03-31T04:05:05.674Z,996.91
2019-03-31T04:06:05.674Z,996.91
2019-03-31T04:07:05.662Z,996.92
2019-03-31T04:08:05.650Z,996.90
2019-03-31T04:09:05.641Z,996.93
2019-03-31T04:10:05.632Z,996.84
2019-03-31T04:11:05.640Z,996.90
2019-03-31T04:12:05.635Z,996.89
2019-03-31T04:13:05.612Z,996.88
2019-03-31T04:14:05.613Z,996.91
2019-03-31T04:15:05.593Z,996.83
2019-03-31T04:16:05.605Z,996.82
2019-03-31T04:17:05.587Z,996.91
2019-03-31T04:18:05.585Z,996.85
2019-03-31T04:19:05.572Z,996.86
2019-03-31T04:20:05.574Z,996.88
2019-03-31T04:21:05.577Z,996.92
2019-03-31T04:22:05.606Z,996.94
2019-03-31T04:23:05.548Z,996.92
2019-03-31T04:24:05.543Z,996.89
2019-03-31T04:25:05.537Z,996.91
2019-03-31T04:26:05.546Z,996.90
2019-03-31T04:27:05.558Z,996.89
2019-03-31T04:28:05.527Z,996.91
2019-03-31T04:29:05.525Z,996.95
2019-03-31T04:30:05.503Z,996.94
2019-03-31T04:31:05.521Z,996.95
2019-03-31T04:32:05.527Z,996.89
2019-03-31T04:33:05.500Z,996.99
2019-03-31T04:34:05.493Z,996.89
2019-03-31T04:35:05.491Z,996.91
2019-03-31T04:36:05.497Z,996.98
2019-03-31T04:37:05.470Z,996.95
2019-03-31T04:38:05.458Z,997.00
2019-03-31T04:39:05.450Z,996.95
2019-03-31T04:40:05.438Z,997.00
2019-03-31T04:41:05.458Z,997.01
2019-03-31T04:42:05.423Z,997.01
2019-03-31T04:43:05.420Z,997.05
2019-03-31T04:44:05.414Z,997.09
2019-03-31T04:45:05.424Z,997.15
2019-03-31T04:46:05.413Z,997.14
2019-03-31T04:47:05.423Z,997.13
2019-03-31T04:48:05.401Z,997.10
2019-03-31T04:49:05.399Z,997.09
2019-03-31T04:50:05.400Z,997.06
2019-03-31T04:51:05.379Z,997.10
2019-03-31T04:52:05.393Z,997.19
2019-03-31T04:53:05.373Z,997.21
2019-03-31T04:54:05.363Z,997.23
2019-03-31T04:55:05.363Z,997.18
2019-03-31T04:56:05.351Z,997.19
2019-03-31T04:57:05.365Z,997.17
2019-03-31T04:58:05.335Z,997.25
2019-03-31T04:59:05.326Z,997.18
2019-03-31T05:00:05.323Z,997.19
2019-03-31T05:01:05.322Z,997.25
2019-03-31T05:02:05.321Z,997.23
2019-03-31T05:03:05.299Z,997.28
2019-03-31T05:04:05.538Z,997.25
2019-03-31T05:05:05.294Z,997.31
2019-03-31T05:06:05.305Z,997.27
2019-03-31T05:07:05.308Z,997.36
2019-03-31T05:08:05.357Z,997.37
2019-03-31T05:09:05.287Z,997.39
2019-03-31T05:10:05.282Z,997.44
2019-03-31T05:11:05.269Z,997.40
2019-03-31T05:12:05.274Z,997.37
2019-03-31T05:13:05.250Z,997.40
2019-03-31T05:14:05.241Z,997.33
2019-03-31T05:15:05.237Z,997.43
2019-03-31T05:16:05.248Z,997.44
2019-03-31T05:17:05.257Z,997.37
2019-03-31T05:18:05.234Z,997.46
2019-03-31T05:19:05.235Z,997.50
2019-03-31T05:20:05.223Z,997.45
2019-03-31T05:21:05.216Z,997.53
2019-03-31T05:22:05.221Z,997.52
2019-03-31T05:23:05.198Z,997.42
2019-03-31T05:24:05.198Z,997.48
2019-03-31T05:25:05.187Z,997.38
2019-03-31T05:26:05.179Z,997.38
2019-03-31T05:27:05.180Z,997.38
2019-03-31T05:28:05.165Z,997.29
2019-03-31T05:29:05.158Z,997.33
2019-03-31T05:30:05.159Z,997.30
2019-03-31T05:31:05.144Z,997.37
2019-03-31T05:32:05.149Z,997.38
2019-03-31T05:33:05.133Z,997.40
2019-03-31T05:34:18.390Z,997.40
2019-03-31T05:35:07.115Z,997.37
2019-03-31T05:36:05.103Z,997.40
2019-03-31T05:37:05.160Z,997.41
2019-03-31T05:38:05.091Z,997.46
2019-03-31T05:39:05.088Z,997.35
2019-03-31T05:40:05.080Z,997.30
2019-03-31T05:41:05.075Z,997.30
2019-03-31T05:42:05.074Z,997.25
2019-03-31T05:43:05.058Z,997.22
2019-03-31T05:44:06.063Z,997.20
2019-03-31T05:45:06.043Z,997.15
2019-03-31T05:46:05.053Z,997.14
2019-03-31T05:47:05.063Z,997.12
2019-03-31T05:48:05.045Z,997.07
2019-03-31T05:49:05.036Z,997.02
2019-03-31T05:50:05.029Z,997.02
2019-03-31T05:51:05.108Z,996.95
2019-03-31T05:52:05.013Z,997.00
2019-03-31T05:53:05.004Z,996.98
2019-03-31T05:54:04.992Z,996.92
2019-03-31T05:55:04.990Z,996.89
2019-03-31T05:56:04.985Z,996.90
2019-03-31T05:57:04.983Z,996.90
2019-03-31T05:58:04.965Z,996.90
2019-03-31T05:59:04.954Z,996.82
2019-03-31T06:00:04.998Z,996.85
2019-03-31T06:01:04.945Z,996.85
2019-03-31T06:02:04.968Z,996.81
2019-03-31T06:03:04.954Z,996.80
2019-03-31T06:04:04.944Z,996.86
2019-03-31T06:05:04.937Z,996.80
2019-03-31T06:06:04.937Z,996.76
2019-03-31T06:07:04.955Z,996.78
2019-03-31T06:08:04.940Z,996.83
2019-03-31T06:09:05.936Z,996.70
2019-03-31T06:10:04.925Z,996.73
2019-03-31T06:11:04.915Z,996.70
2019-03-31T06:12:04.921Z,996.68
2019-03-31T06:13:04.902Z,996.64
2019-03-31T06:14:04.893Z,996.69
2019-03-31T06:15:04.902Z,996.70
2019-03-31T06:16:04.901Z,996.67
2019-03-31T06:17:04.895Z,996.63
2019-03-31T06:18:04.878Z,996.69
2019-03-31T06:19:04.867Z,996.60
2019-03-31T06:20:04.861Z,996.66
2019-03-31T06:21:04.854Z,996.62
2019-03-31T06:22:04.856Z,996.55
2019-03-31T06:23:04.892Z,996.57
2019-03-31T06:24:04.833Z,996.64
2019-03-31T06:25:04.824Z,996.54
2019-03-31T06:26:04.817Z,996.54
2019-03-31T06:27:04.844Z,996.51
2019-03-31T06:28:04.800Z,996.45
2019-03-31T06:29:04.792Z,996.48
2019-03-31T06:30:04.779Z,996.49
2019-03-31T06:31:04.774Z,996.37
2019-03-31T06:32:04.788Z,996.40
2019-03-31T06:33:04.769Z,996.40
2019-03-31T06:34:04.760Z,996.38
2019-03-31T06:35:04.757Z,996.28
2019-03-31T06:36:04.736Z,996.31
2019-03-31T06:37:04.735Z,996.20
2019-03-31T06:38:04.734Z,996.29
2019-03-31T06:39:04.723Z,996.23
2019-03-31T06:40:04.709Z,996.19
2019-03-31T06:41:04.710Z,996.27
2019-03-31T06:42:04.697Z,996.25
2019-03-31T06:43:04.699Z,996.19
2019-03-31T06:44:04.678Z,996.28
2019-03-31T06:45:04.673Z,996.27
2019-03-31T06:46:04.669Z,996.29
2019-03-31T06:47:04.657Z,996.29
2019-03-31T06:48:04.657Z,996.28
2019-03-31T06:49:04.638Z,996.20
2019-03-31T06:50:04.654Z,996.18
2019-03-31T06:51:04.656Z,996.22
2019-03-31T06:52:04.645Z,996.25
2019-03-31T06:53:04.639Z,996.25
2019-03-31T06:54:04.619Z,996.33
2019-03-31T06:55:04.614Z,996.31
2019-03-31T06:56:04.617Z,996.39
2019-03-31T06:57:04.601Z,996.38
2019-03-31T06:58:04.610Z,996.45
2019-03-31T06:59:04.588Z,996.53
2019-03-31T07:00:04.570Z,996.61
2019-03-31T07:01:05.571Z,996.67
2019-03-31T07:02:04.569Z,996.75
2019-03-31T07:03:04.573Z,996.79
2019-03-31T07:04:04.547Z,996.85
2019-03-31T07:05:04.537Z,996.86
2019-03-31T07:06:04.530Z,996.85
2019-03-31T07:07:04.518Z,996.79
2019-03-31T07:08:04.536Z,996.65
2019-03-31T07:09:04.516Z,996.69
2019-03-31T07:10:04.512Z,996.68
2019-03-31T07:11:04.501Z,996.62
2019-03-31T07:12:04.495Z,996.64
2019-03-31T07:13:04.494Z,996.57
2019-03-31T07:14:04.505Z,996.56
2019-03-31T07:15:04.566Z,996.55
2019-03-31T07:16:04.493Z,996.58
2019-03-31T07:17:04.474Z,996.58
2019-03-31T07:18:04.479Z,996.51
2019-03-31T07:19:04.460Z,996.58
2019-03-31T07:20:04.527Z,996.57
2019-03-31T07:21:04.446Z,996.53
2019-03-31T07:22:04.442Z,996.56
2019-03-31T07:23:04.460Z,996.60
2019-03-31T07:24:04.417Z,996.60
2019-03-31T07:25:05.420Z,996.62
2019-03-31T07:26:04.411Z,996.73
2019-03-31T07:27:04.400Z,996.72
2019-03-31T07:28:04.426Z,996.75
2019-03-31T07:29:04.391Z,996.76
2019-03-31T07:30:07.108Z,996.61
2019-03-31T07:31:04.384Z,996.62
2019-03-31T07:32:04.370Z,996.65
2019-03-31T07:33:04.392Z,996.60
2019-03-31T07:34:04.374Z,996.65
2019-03-31T07:35:17.585Z,996.60
2019-03-31T07:36:06.368Z,996.49
2019-03-31T07:37:04.380Z,996.54
2019-03-31T07:38:04.383Z,996.56
2019-03-31T07:39:04.548Z,996.52
2019-03-31T07:40:04.680Z,996.58
2019-03-31T07:41:12.628Z,996.49
2019-03-31T07:42:06.622Z,996.55
2019-03-31T07:43:04.425Z,996.54
2019-03-31T07:44:04.340Z,996.62
2019-03-31T07:45:04.333Z,996.56
2019-03-31T07:46:04.325Z,996.61
2019-03-31T07:47:04.320Z,996.64
2019-03-31T07:48:07.904Z,996.67
2019-03-31T07:49:04.307Z,996.73
2019-03-31T07:50:04.299Z,996.76
2019-03-31T07:51:04.295Z,996.69
2019-03-31T07:52:04.279Z,996.75
2019-03-31T07:53:04.284Z,996.75
2019-03-31T07:54:04.276Z,996.81
2019-03-31T07:55:04.270Z,996.82
2019-03-31T07:56:04.274Z,996.81
2019-03-31T07:57:06.949Z,996.85
2019-03-31T07:58:05.258Z,996.92
2019-03-31T07:59:04.264Z,996.90
2019-03-31T08:00:04.311Z,996.97
2019-03-31T08:01:04.226Z,997.00
2019-03-31T08:02:04.219Z,997.02
2019-03-31T08:03:04.224Z,997.07
2019-03-31T08:04:04.204Z,997.08
2019-03-31T08:05:04.201Z,997.01
2019-03-31T08:06:04.190Z,997.05
2019-03-31T08:07:04.180Z,997.07
2019-03-31T08:08:04.215Z,997.04
2019-03-31T08:09:04.192Z,997.08
2019-03-31T08:10:04.196Z,996.99
2019-03-31T08:11:04.187Z,996.98
2019-03-31T08:12:04.176Z,997.10
2019-03-31T08:13:04.187Z,997.08
2019-03-31T08:14:04.161Z,997.10
2019-03-31T08:15:04.157Z,997.17
2019-03-31T08:16:04.157Z,997.23
2019-03-31T08:17:04.142Z,997.24
2019-03-31T08:18:04.131Z,997.30
2019-03-31T08:19:04.133Z,997.33
2019-03-31T08:20:04.114Z,997.32
2019-03-31T08:21:04.110Z,997.37
2019-03-31T08:22:04.097Z,997.34
2019-03-31T08:23:04.095Z,997.35
2019-03-31T08:24:06.634Z,997.30
2019-03-31T08:25:04.084Z,997.33
2019-03-31T08:26:04.075Z,997.37
2019-03-31T08:27:05.720Z,997.42
2019-03-31T08:28:05.055Z,997.40
2019-03-31T08:29:04.058Z,997.45
2019-03-31T08:30:04.039Z,997.41
2019-03-31T08:31:04.056Z,997.41
2019-03-31T08:32:04.043Z,997.39
2019-03-31T08:33:04.037Z,997.46
2019-03-31T08:34:04.038Z,997.51
2019-03-31T08:35:04.017Z,997.45
2019-03-31T08:36:04.025Z,997.53
2019-03-31T08:37:03.999Z,997.55
2019-03-31T08:38:04.000Z,997.51
2019-03-31T08:39:04.035Z,997.46
2019-03-31T08:40:03.983Z,997.50
2019-03-31T08:41:03.980Z,997.46
2019-03-31T08:42:03.964Z,997.52
2019-03-31T08:43:03.970Z,997.52
2019-03-31T08:44:03.969Z,997.53
2019-03-31T08:45:03.954Z,997.43
2019-03-31T08:46:03.951Z,997.45
2019-03-31T08:47:03.943Z,997.45
2019-03-31T08:48:03.936Z,997.44
2019-03-31T08:49:03.938Z,997.40
2019-03-31T08:50:03.943Z,997.45
2019-03-31T08:51:03.940Z,997.37
2019-03-31T08:52:03.931Z,997.39
2019-03-31T08:53:03.927Z,997.37
2019-03-31T08:54:03.926Z,997.37
2019-03-31T08:55:03.911Z,997.32
2019-03-31T08:56:03.901Z,997.38
2019-03-31T08:57:03.897Z,997.44
2019-03-31T08:58:03.895Z,997.39
2019-03-31T08:59:03.896Z,997.45
2019-03-31T09:00:03.877Z,997.46
2019-03-31T09:01:03.871Z,997.41
2019-03-31T09:02:03.858Z,997.39
2019-03-31T09:03:03.861Z,997.37
2019-03-31T09:04:03.858Z,997.37
2019-03-31T09:05:03.838Z,997.35
2019-03-31T09:06:03.843Z,997.41
2019-03-31T09:07:03.842Z,997.41
2019-03-31T09:08:03.832Z,997.45
2019-03-31T09:09:03.837Z,997.49
2019-03-31T09:10:03.822Z,997.47
2019-03-31T09:11:03.820Z,997.51
2019-03-31T09:12:03.806Z,997.49
2019-03-31T09:13:03.801Z,997.55
2019-03-31T09:14:03.855Z,997.47
2019-03-31T09:15:03.802Z,997.50
2019-03-31T09:16:03.798Z,997.46
2019-03-31T09:17:03.789Z,997.39
2019-03-31T09:18:03.781Z,997.39
2019-03-31T09:19:03.779Z,997.40
2019-03-31T09:20:03.776Z,997.32
2019-03-31T09:21:03.758Z,997.30
2019-03-31T09:22:03.754Z,997.31
2019-03-31T09:23:03.759Z,997.33
2019-03-31T09:24:03.762Z,997.26
2019-03-31T09:25:03.747Z,997.38
2019-03-31T09:26:03.738Z,997.33
2019-03-31T09:27:03.729Z,997.36
2019-03-31T09:28:03.728Z,997.33
2019-03-31T09:29:03.726Z,997.33
2019-03-31T09:30:03.712Z,997.32
2019-03-31T09:31:03.701Z,997.34
2019-03-31T09:32:03.690Z,997.34
2019-03-31T09:33:03.692Z,997.35
2019-03-31T09:34:03.689Z,997.41
2019-03-31T09:35:03.685Z,997.45
2019-03-31T09:36:15.428Z,997.40
2019-03-31T09:37:05.664Z,997.46
2019-03-31T09:38:03.655Z,997.48
2019-03-31T09:39:03.652Z,997.40
2019-03-31T09:40:03.633Z,997.53
2019-03-31T09:41:03.636Z,997.56
2019-03-31T09:42:03.624Z,997.55
2019-03-31T09:43:03.624Z,997.52
2019-03-31T09:44:03.624Z,997.54
2019-03-31T09:45:03.606Z,997.60
2019-03-31T09:46:03.600Z,997.63
2019-03-31T09:47:03.603Z,997.64
2019-03-31T09:48:03.594Z,997.67
2019-03-31T09:49:03.599Z,997.68
2019-03-31T09:50:03.577Z,997.70
2019-03-31T09:51:03.567Z,997.68
2019-03-31T09:52:03.571Z,997.68
2019-03-31T09:53:03.557Z,997.73
2019-03-31T09:54:03.563Z,997.70
2019-03-31T09:55:03.539Z,997.70
2019-03-31T09:56:03.529Z,997.76
2019-03-31T09:57:03.531Z,997.71
2019-03-31T09:58:03.523Z,997.72
2019-03-31T09:59:03.533Z,997.75
2019-03-31T10:00:03.504Z,997.68
2019-03-31T10:01:03.499Z,997.68
2019-03-31T10:02:03.485Z,997.65
2019-03-31T10:03:03.489Z,997.65
2019-03-31T10:04:03.493Z,997.61
2019-03-31T10:05:03.474Z,997.65
2019-03-31T10:06:10.724Z,997.58
2019-03-31T10:07:05.458Z,997.62
2019-03-31T10:08:03.450Z,997.66
2019-03-31T10:09:03.456Z,997.58
2019-03-31T10:10:03.432Z,997.50
2019-03-31T10:11:03.430Z,997.52
2019-03-31T10:12:03.420Z,997.52
2019-03-31T10:13:03.417Z,997.54
2019-03-31T10:14:03.428Z,997.56
2019-03-31T10:15:03.400Z,997.58
2019-03-31T10:16:03.387Z,997.49
2019-03-31T10:17:03.381Z,997.57
2019-03-31T10:18:03.384Z,997.53
2019-03-31T10:19:03.397Z,997.55
2019-03-31T10:20:03.368Z,997.49
2019-03-31T10:21:03.356Z,997.52
2019-03-31T10:22:03.354Z,997.54
2019-03-31T10:23:03.345Z,997.47
2019-03-31T10:24:03.336Z,997.53
2019-03-31T10:25:03.374Z,997.48
2019-03-31T10:26:43.434Z,997.49
2019-03-31T10:27:44.528Z,997.55
2019-03-31T10:28:44.512Z,997.50
2019-03-31T10:29:44.525Z,997.50
2019-03-31T10:30:44.495Z,997.45
2019-03-31T10:31:44.486Z,997.49
2019-03-31T10:32:44.481Z,997.44
2019-03-31T10:33:44.472Z,997.46
2019-03-31T10:34:44.478Z,997.52
2019-03-31T10:35:44.467Z,997.52
2019-03-31T10:36:45.117Z,997.48
2019-03-31T10:37:44.444Z,997.52
2019-03-31T10:38:44.432Z,997.51
2019-03-31T10:39:44.447Z,997.49
2019-03-31T10:40:44.450Z,997.49
2019-03-31T10:41:44.428Z,997.47
2019-03-31T10:42:44.414Z,997.44
2019-03-31T10:43:44.415Z,997.43
2019-03-31T10:44:44.414Z,997.38
2019-03-31T10:45:44.395Z,997.41
2019-03-31T10:46:44.395Z,997.43
2019-03-31T10:47:44.377Z,997.41
2019-03-31T10:48:44.383Z,997.42
2019-03-31T10:49:44.392Z,997.41
2019-03-31T10:50:44.363Z,997.32
2019-03-31T10:51:44.358Z,997.45
2019-03-31T10:52:44.341Z,997.26
2019-03-31T10:53:44.334Z,997.34
2019-03-31T10:54:44.342Z,997.28
2019-03-31T10:55:44.324Z,997.34
2019-03-31T10:56:44.315Z,997.38
2019-03-31T10:57:44.307Z,997.34
2019-03-31T10:58:44.293Z,997.34
2019-03-31T10:59:44.298Z,997.32
2019-03-31T11:00:44.779Z,997.31
2019-03-31T11:01:45.271Z,997.36
2019-03-31T11:02:44.278Z,997.27
2019-03-31T11:03:44.271Z,997.23
2019-03-31T11:04:44.262Z,997.26
2019-03-31T11:05:44.264Z,997.20
2019-03-31T11:06:57.962Z,997.16
2019-03-31T11:07:45.238Z,997.12
2019-03-31T11:08:44.238Z,997.12
2019-03-31T11:09:44.223Z,997.18
2019-03-31T11:10:44.231Z,997.10
2019-03-31T11:11:44.210Z,997.22
2019-03-31T11:12:44.201Z,997.26
2019-03-31T11:13:44.197Z,997.20
2019-03-31T11:14:44.195Z,997.19
2019-03-31T11:15:44.190Z,997.16
2019-03-31T11:16:44.177Z,997.20
2019-03-31T11:17:44.168Z,997.24
2019-03-31T11:18:44.157Z,997.21
2019-03-31T11:19:44.168Z,997.26
2019-03-31T11:20:44.172Z,997.30
2019-03-31T11:21:44.150Z,997.32
2019-03-31T11:22:44.148Z,997.22
2019-03-31T11:23:44.141Z,997.32
2019-03-31T11:24:44.132Z,997.35
2019-03-31T11:25:44.157Z,997.37
2019-03-31T11:26:44.128Z,997.37
2019-03-31T11:27:44.123Z,997.41
2019-03-31T11:28:44.128Z,997.34
2019-03-31T11:29:44.114Z,997.33
2019-03-31T11:30:44.118Z,997.37
2019-03-31T11:31:44.128Z,997.34
2019-03-31T11:32:44.115Z,997.35
2019-03-31T11:33:44.107Z,997.34
2019-03-31T11:34:44.117Z,997.37
2019-03-31T11:35:44.105Z,997.41
2019-03-31T11:36:44.097Z,997.40
2019-03-31T11:37:44.090Z,997.45
2019-03-31T11:38:44.078Z,997.51
2019-03-31T11:39:44.063Z,997.51
2019-03-31T11:40:44.076Z,997.52
2019-03-31T11:41:44.111Z,997.60
2019-03-31T11:42:44.046Z,997.62
2019-03-31T11:43:44.041Z,997.52
2019-03-31T11:44:44.035Z,997.59
2019-03-31T11:45:44.035Z,997.59
2019-03-31T11:46:44.017Z,997.61
2019-03-31T11:47:44.001Z,997.60
2019-03-31T11:48:44.022Z,997.62
2019-03-31T11:49:44.013Z,997.62
2019-03-31T11:50:44.021Z,997.67
2019-03-31T11:51:44.002Z,997.65
2019-03-31T11:52:44.002Z,997.63
2019-03-31T11:53:43.988Z,997.55
2019-03-31T11:54:45.891Z,997.64
2019-03-31T11:55:44.987Z,997.72
2019-03-31T11:56:43.975Z,997.63
2019-03-31T11:57:43.963Z,997.68
2019-03-31T11:58:43.970Z,997.72
2019-03-31T11:59:43.954Z,997.61
2019-03-31T12:00:43.947Z,997.58
2019-03-31T12:01:43.930Z,997.61
2019-03-31T12:02:43.925Z,997.56
2019-03-31T12:03:43.913Z,997.64
2019-03-31T12:04:43.906Z,997.52
2019-03-31T12:05:43.929Z,997.60
2019-03-31T12:06:43.908Z,997.58
2019-03-31T12:07:46.916Z,997.61
2019-03-31T12:08:44.892Z,997.58
2019-03-31T12:09:43.884Z,997.49
2019-03-31T12:10:43.890Z,997.48
2019-03-31T12:11:45.690Z,997.56
2019-03-31T12:12:44.884Z,997.52
2019-03-31T12:13:43.881Z,997.53
2019-03-31T12:14:43.870Z,997.52
2019-03-31T12:15:43.871Z,997.52
2019-03-31T12:16:43.851Z,997.53
2019-03-31T12:17:43.845Z,997.54
2019-03-31T12:18:43.846Z,997.56
2019-03-31T12:19:43.834Z,997.51
2019-03-31T12:20:43.848Z,997.53
2019-03-31T12:21:43.831Z,997.51
2019-03-31T12:22:43.883Z,997.52
2019-03-31T12:23:43.815Z,997.43
2019-03-31T12:24:43.804Z,997.43
2019-03-31T12:25:43.831Z,997.49
2019-03-31T12:26:43.787Z,997.45
2019-03-31T12:27:43.783Z,997.40
2019-03-31T12:28:43.781Z,997.51